Terminal Aerodrome Forecast
Issued by NWS Wakefield, VA

Home | Current Version | Previous Version | Text Only | Print | Product List | Glossary On
Versions: 1 2 3 4 5 6 7 8 9 10 11 12 13 14 15 16
727
FTUS41 KAKQ 111120
TAFRIC
TAF
KRIC 111120Z 1112/1212 VRB04KT P6SM OVC150
     FM111700 13008KT P6SM BKN250
     FM112300 16005KT P6SM OVC050
     FM120600 19007KT 5SM -RA BR OVC030 WS020/21040KT
     FM120800 20010KT 3SM -RA BR OVC015=

USA.gov is the U.S. government's official web portal to all federal, state and local government web resources and services.